St Peter — C6YR4 — position and weather

sailwx.info

Track history (hours):
 
Tides and Currents Weather Stations Pressure Air Temp Water Temp Dewpoint Dewpoint Depression Visibility Wind Speed Wind Dir Waves Ship Positions

St Peter

Last reported at 2017-Nov-16 05:44 UTC. Time now 2017-Nov-23 13:11 UTC.
Position N 35°56' W 005°13'.

Length 180 m; draft 9.8 m.

Type: Cargo ship. MMSI: 311042700.

Date/timePositionNaut miles runAvg speedWind from/ knotsBaromVisibWave heightAir tempDewpointWater temp
2017-Nov-16 05:44N 35°56' W 005°13'210.7
2017-Nov-16 05:30N 35°56' W 005°16'3 6.5
2017-Nov-16 05:00N 35°55' W 005°20'0 0.2
2017-Nov-16 04:30N 35°55' W 005°20'0 0.1
2017-Nov-16 04:00N 35°55' W 005°20'0 0.2
2017-Nov-16 03:30N 35°55' W 005°20'0 0.2
2017-Nov-16 03:00N 35°55' W 005°20'0 0.0
2017-Nov-16 02:30N 35°55' W 005°20'0 0.0
2017-Nov-16 02:00N 35°55' W 005°20'0 0.1
2017-Nov-16 01:30N 35°55' W 005°20'0 0.2
2017-Nov-16 01:00N 35°55' W 005°20'0 0.1
2017-Nov-16 00:30N 35°55' W 005°20'0 0.0
2017-Nov-16 00:00N 35°55' W 005°20'0 0.0
2017-Nov-15 23:30N 35°55' W 005°20'0 0.0
2017-Nov-15 23:00N 35°55' W 005°20'0 0.0
2017-Nov-15 22:30N 35°55' W 005°20'0 0.0
2017-Nov-15 22:00N 35°55' W 005°20'0 0.0
2017-Nov-15 21:30N 35°55' W 005°20'0 0.0
2017-Nov-15 21:00N 35°55' W 005°20'0 0.1
2017-Nov-15 20:30N 35°55' W 005°20'0 0.1
2017-Nov-15 20:00N 35°55' W 005°20'0 0.1
2017-Nov-15 19:30N 35°55' W 005°20'0 0.1
2017-Nov-15 19:00N 35°55' W 005°20'0 0.0
2017-Nov-15 18:30N 35°55' W 005°20'0 0.0
2017-Nov-15 18:00N 35°55' W 005°20'0 0.1
2017-Nov-15 17:30N 35°55' W 005°20'0 0.0
2017-Nov-15 17:00N 35°55' W 005°20'0 0.0
2017-Nov-15 16:30N 35°55' W 005°20'0 0.0
2017-Nov-15 16:00N 35°55' W 005°20'0 0.0
2017-Nov-15 15:30N 35°55' W 005°20'0 0.1
2017-Nov-15 15:00N 35°55' W 005°20'0 0.0
2017-Nov-15 14:30N 35°55' W 005°20'0 0.0
2017-Nov-15 14:00N 35°55' W 005°20'0 0.0
2017-Nov-15 13:30N 35°55' W 005°20'0 0.2
2017-Nov-15 13:00N 35°55' W 005°20'3 6.7
2017-Nov-15 12:30N 35°58' W 005°20'4 2.0
2017-Nov-15 10:32N 35°60' W 005°25'1 9.9
2017-Nov-15 10:29N 35°59' W 005°25'611.6
2017-Nov-15 09:59N 35°57' W 005°32'  
2017-Nov-13 01:59N 28°52' W 012°47'510.5
2017-Nov-13 01:29N 28°48' W 012°50'510.2
2017-Nov-13 01:00N 28°44' W 012°53'5 9.9
2017-Nov-13 00:30N 28°40' W 012°57'610.0
2017-Nov-12 23:55N 28°35' W 013°00'410.2
2017-Nov-12 23:30N 28°32' W 013°03'510.3
2017-Nov-12 23:00N 28°27' W 013°06'810.4
2017-Nov-12 22:13N 28°21' W 013°12'310.7
2017-Nov-12 21:56N 28°18' W 013°14'510.8
2017-Nov-12 21:30N 28°15' W 013°17'1510.8
2017-Nov-12 20:05N 28°01' W 013°26'110.7
2017-Nov-12 20:00N 28°01' W 013°26'510.7
2017-Nov-12 19:30N 27°57' W 013°31'510.6
2017-Nov-12 19:00N 27°53' W 013°35'510.4
2017-Nov-12 18:30N 27°50' W 013°39'510.4
2017-Nov-12 18:00N 27°46' W 013°44'510.4
2017-Nov-12 17:30N 27°43' W 013°48'510.2
2017-Nov-12 17:00N 27°39' W 013°52'510.3
2017-Nov-12 16:30N 27°36' W 013°56'611.7
2017-Nov-12 16:00N 27°32' W 014°01'611.8
2017-Nov-12 15:30N 27°28' W 014°06'612.4
2017-Nov-12 14:59N 27°23' W 014°11'612.3
2017-Nov-12 14:30N 27°20' W 014°16'612.1
2017-Nov-12 14:00N 27°15' W 014°21'612.1
2017-Nov-12 13:29N 27°11' W 014°26'36 7.8
2017-Nov-12 08:50N 26°46' W 014°56'1410.0
2017-Nov-12 07:26N 26°37' W 015°08'510.4
2017-Nov-12 06:58N 26°33' W 015°12'510.3
2017-Nov-12 06:28N 26°30' W 015°16'510.4
2017-Nov-12 05:57N 26°26' W 015°20'510.3
2017-Nov-12 05:30N 26°23' W 015°24'510.6
2017-Nov-12 05:00N 26°19' W 015°28'1310.5
2017-Nov-12 03:48N 26°11' W 015°38'137 9.7
2017-Nov-11 13:39N 24°21' W 017°09'3 9.2
2017-Nov-11 13:18N 24°18' W 017°10'3 9.0
2017-Nov-11 13:00N 24°15' W 017°12'15 8.7
2017-Nov-11 11:13N 24°02' W 017°20'27 8.9
2017-Nov-11 08:12N 23°38' W 017°34'5 9.6
2017-Nov-11 07:41N 23°34' W 017°37'56 9.8
2017-Nov-11 01:57N 22°45' W 018°06'  
Track history (hours):
 
Tides and Currents Weather Stations Pressure Air Temp Water Temp Dewpoint Dewpoint Depression Visibility Wind Speed Wind Dir Waves Ship Positions

St Peter

Last reported at 2017-Nov-16 05:44 UTC. Time now 2017-Nov-23 13:11 UTC.
Position N 35°56' W 005°13'.

Length 180 m; draft 9.8 m.

Type: Cargo ship. MMSI: 311042700.

Date/timePositionNaut miles runAvg speedWind from/ knotsBaromVisibWave heightAir tempDewpointWater temp
2017-Nov-16 05:44N 35°56' W 005°13'210.7
2017-Nov-16 05:30N 35°56' W 005°16'3 6.5
2017-Nov-16 05:00N 35°55' W 005°20'0 0.2
2017-Nov-16 04:30N 35°55' W 005°20'0 0.1
2017-Nov-16 04:00N 35°55' W 005°20'0 0.2
2017-Nov-16 03:30N 35°55' W 005°20'0 0.2
2017-Nov-16 03:00N 35°55' W 005°20'0 0.0
2017-Nov-16 02:30N 35°55' W 005°20'0 0.0
2017-Nov-16 02:00N 35°55' W 005°20'0 0.1
2017-Nov-16 01:30N 35°55' W 005°20'0 0.2
2017-Nov-16 01:00N 35°55' W 005°20'0 0.1
2017-Nov-16 00:30N 35°55' W 005°20'0 0.0
2017-Nov-16 00:00N 35°55' W 005°20'0 0.0
2017-Nov-15 23:30N 35°55' W 005°20'0 0.0
2017-Nov-15 23:00N 35°55' W 005°20'0 0.0
2017-Nov-15 22:30N 35°55' W 005°20'0 0.0
2017-Nov-15 22:00N 35°55' W 005°20'0 0.0
2017-Nov-15 21:30N 35°55' W 005°20'0 0.0
2017-Nov-15 21:00N 35°55' W 005°20'0 0.1
2017-Nov-15 20:30N 35°55' W 005°20'0 0.1
2017-Nov-15 20:00N 35°55' W 005°20'0 0.1
2017-Nov-15 19:30N 35°55' W 005°20'0 0.1
2017-Nov-15 19:00N 35°55' W 005°20'0 0.0
2017-Nov-15 18:30N 35°55' W 005°20'0 0.0
2017-Nov-15 18:00N 35°55' W 005°20'0 0.1
2017-Nov-15 17:30N 35°55' W 005°20'0 0.0
2017-Nov-15 17:00N 35°55' W 005°20'0 0.0
2017-Nov-15 16:30N 35°55' W 005°20'0 0.0
2017-Nov-15 16:00N 35°55' W 005°20'0 0.0
2017-Nov-15 15:30N 35°55' W 005°20'0 0.1
2017-Nov-15 15:00N 35°55' W 005°20'0 0.0
2017-Nov-15 14:30N 35°55' W 005°20'0 0.0
2017-Nov-15 14:00N 35°55' W 005°20'0 0.0
2017-Nov-15 13:30N 35°55' W 005°20'0 0.2
2017-Nov-15 13:00N 35°55' W 005°20'3 6.7
2017-Nov-15 12:30N 35°58' W 005°20'4 2.0
2017-Nov-15 10:32N 35°60' W 005°25'1 9.9
2017-Nov-15 10:29N 35°59' W 005°25'611.6
2017-Nov-15 09:59N 35°57' W 005°32'  
2017-Nov-13 01:59N 28°52' W 012°47'510.5
2017-Nov-13 01:29N 28°48' W 012°50'510.2
2017-Nov-13 01:00N 28°44' W 012°53'5 9.9
2017-Nov-13 00:30N 28°40' W 012°57'610.0
2017-Nov-12 23:55N 28°35' W 013°00'410.2
2017-Nov-12 23:30N 28°32' W 013°03'510.3
2017-Nov-12 23:00N 28°27' W 013°06'810.4
2017-Nov-12 22:13N 28°21' W 013°12'310.7
2017-Nov-12 21:56N 28°18' W 013°14'510.8
2017-Nov-12 21:30N 28°15' W 013°17'1510.8
2017-Nov-12 20:05N 28°01' W 013°26'110.7
2017-Nov-12 20:00N 28°01' W 013°26'510.7
2017-Nov-12 19:30N 27°57' W 013°31'510.6
2017-Nov-12 19:00N 27°53' W 013°35'510.4
2017-Nov-12 18:30N 27°50' W 013°39'510.4
2017-Nov-12 18:00N 27°46' W 013°44'510.4
2017-Nov-12 17:30N 27°43' W 013°48'510.2
2017-Nov-12 17:00N 27°39' W 013°52'510.3
2017-Nov-12 16:30N 27°36' W 013°56'611.7
2017-Nov-12 16:00N 27°32' W 014°01'611.8
2017-Nov-12 15:30N 27°28' W 014°06'612.4
2017-Nov-12 14:59N 27°23' W 014°11'612.3
2017-Nov-12 14:30N 27°20' W 014°16'612.1
2017-Nov-12 14:00N 27°15' W 014°21'612.1
2017-Nov-12 13:29N 27°11' W 014°26'36 7.8
2017-Nov-12 08:50N 26°46' W 014°56'1410.0
2017-Nov-12 07:26N 26°37' W 015°08'510.4
2017-Nov-12 06:58N 26°33' W 015°12'510.3
2017-Nov-12 06:28N 26°30' W 015°16'510.4
2017-Nov-12 05:57N 26°26' W 015°20'510.3
2017-Nov-12 05:30N 26°23' W 015°24'510.6
2017-Nov-12 05:00N 26°19' W 015°28'1310.5
2017-Nov-12 03:48N 26°11' W 015°38'137 9.7
2017-Nov-11 13:39N 24°21' W 017°09'3 9.2
2017-Nov-11 13:18N 24°18' W 017°10'3 9.0
2017-Nov-11 13:00N 24°15' W 017°12'15 8.7
2017-Nov-11 11:13N 24°02' W 017°20'27 8.9
2017-Nov-11 08:12N 23°38' W 017°34'5 9.6
2017-Nov-11 07:41N 23°34' W 017°37'56 9.8
2017-Nov-11 01:57N 22°45' W 018°06'  

Dump ship's entire track history